Time;durP1;ratioP1;P1;durP2;ratioP2;P2;SDS_P1;SDS_P2;PMS_P1;PMS_P2;Temp;Humidity;BMP_temperature;BMP_pressure;BME280_temperature;BME280_humidity;BME280_pressure;Samples;Min_cycle;Max_cycle;Signal;HPM_P1;HPM_P2
2023/08/23 00:00:32;;;;;;;;;;;21.70;99.90;;;;;;5123770;28;20393;-74
2023/08/23 00:02:59;;;;;;;;;;;21.70;99.90;;;;;;5113606;28;19986;-75
2023/08/23 00:05:26;;;;;;;;;;;21.60;99.90;;;;;;5124254;28;20127;-76
2023/08/23 00:07:52;;;;;;;;;;;21.70;99.90;;;;;;5124269;28;19928;-75
2023/08/23 00:10:19;;;;;;;;;;;21.60;99.90;;;;;;5124032;28;20262;-75
2023/08/23 00:12:46;;;;;;;;;;;21.60;99.90;;;;;;5123558;28;19987;-75
2023/08/23 00:15:14;;;;;;;;;;;21.50;99.90;;;;;;5124319;28;19942;-76
2023/08/23 00:17:40;;;;;;;;;;;21.50;99.90;;;;;;5120627;28;20215;-75
2023/08/23 00:20:07;;;;;;;;;;;21.50;99.90;;;;;;5103873;28;19920;-75
2023/08/23 00:22:34;;;;;;;;;;;21.50;99.90;;;;;;5102875;28;19992;-76
2023/08/23 00:25:00;;;;;;;;;;;21.40;99.90;;;;;;5103686;28;20000;-76
2023/08/23 00:27:27;;;;;;;;;;;21.40;99.90;;;;;;5103580;28;20010;-74
2023/08/23 00:29:54;;;;;;;;;;;21.40;99.90;;;;;;5103479;28;19920;-76
2023/08/23 00:32:22;;;;;;;;;;;21.30;99.90;;;;;;5103054;28;19987;-76
2023/08/23 00:34:48;;;;;;;;;;;21.30;99.90;;;;;;5116234;28;19947;-76
2023/08/23 00:37:15;;;;;;;;;;;21.30;99.90;;;;;;5125007;28;19991;-75
2023/08/23 00:39:42;;;;;;;;;;;21.20;99.90;;;;;;5125488;28;20094;-75
2023/08/23 00:42:10;;;;;;;;;;;21.20;99.90;;;;;;5122912;28;19927;-75
2023/08/23 00:44:36;;;;;;;;;;;21.20;99.90;;;;;;5124887;28;19919;-75
2023/08/23 00:47:03;;;;;;;;;;;21.20;99.90;;;;;;5123779;28;19919;-75
2023/08/23 00:49:34;;;;;;;;;;;21.20;99.90;;;;;;5133344;28;19947;-76
2023/08/23 00:52:01;;;;;;;;;;;21.10;99.90;;;;;;5137228;28;19927;-76
2023/08/23 00:54:27;;;;;;;;;;;21.10;99.90;;;;;;5123661;28;19920;-75
2023/08/23 00:56:55;;;;;;;;;;;21.10;99.90;;;;;;5129093;28;19947;-75
2023/08/23 00:59:22;;;;;;;;;;;21.10;99.90;;;;;;5144202;27;19919;-75
2023/08/23 01:01:50;;;;;;;;;;;21.00;99.90;;;;;;5139044;27;19955;-74
2023/08/23 01:04:16;;;;;;;;;;;20.90;99.90;;;;;;5118420;28;19966;-75
2023/08/23 01:06:51;;;;;;;;;;;20.90;99.90;;;;;;5124987;28;19928;-76
2023/08/23 01:09:24;;;;;;;;;;;20.80;99.90;;;;;;5127381;28;19919;-76
2023/08/23 01:11:56;;;;;;;;;;;20.80;99.90;;;;;;5127256;28;19927;-76
2023/08/23 01:14:23;;;;;;;;;;;20.80;99.90;;;;;;5127243;28;19987;-76
2023/08/23 01:16:50;;;;;;;;;;;20.80;99.90;;;;;;5127254;28;19955;-76
2023/08/23 01:19:28;;;;;;;;;;;20.70;99.90;;;;;;5127364;28;19987;-76
2023/08/23 01:21:57;;;;;;;;;;;20.70;99.90;;;;;;5126752;28;19966;-75
2023/08/23 01:24:26;;;;;;;;;;;20.60;99.90;;;;;;5127253;28;19951;-76
2023/08/23 01:26:52;;;;;;;;;;;20.60;99.90;;;;;;5126682;28;19947;-76
2023/08/23 01:29:19;;;;;;;;;;;20.60;99.90;;;;;;5127085;28;19986;-76
2023/08/23 01:31:46;;;;;;;;;;;20.50;99.90;;;;;;5126940;28;19927;-76
2023/08/23 01:34:23;;;;;;;;;;;20.50;99.90;;;;;;5124587;28;19954;-76
2023/08/23 01:36:51;;;;;;;;;;;20.50;99.90;;;;;;5119121;28;19920;-76
2023/08/23 01:39:17;;;;;;;;;;;20.50;99.90;;;;;;5127057;28;20178;-76
2023/08/23 01:41:45;;;;;;;;;;;20.50;99.90;;;;;;5126593;28;19951;-77
2023/08/23 01:44:13;;;;;;;;;;;20.50;99.90;;;;;;5123650;28;19951;-77
2023/08/23 01:46:40;;;;;;;;;;;20.50;99.90;;;;;;5126537;28;19955;-77
2023/08/23 01:49:06;;;;;;;;;;;20.50;99.90;;;;;;5126874;28;19958;-76
2023/08/23 01:51:33;;;;;;;;;;;20.50;99.90;;;;;;5126358;28;19944;-77
2023/08/23 01:54:00;;;;;;;;;;;20.40;99.90;;;;;;5126133;28;20247;-77
2023/08/23 01:56:26;;;;;;;;;;;20.40;99.90;;;;;;5126191;28;19920;-77
2023/08/23 01:58:54;;;;;;;;;;;20.40;99.90;;;;;;5126332;28;19926;-77
2023/08/23 02:01:21;;;;;;;;;;;20.40;99.90;;;;;;5126155;28;19982;-76
2023/08/23 02:03:50;;;;;;;;;;;20.30;99.90;;;;;;5123004;28;19959;-76
2023/08/23 02:06:25;;;;;;;;;;;20.30;99.90;;;;;;5123738;28;19943;-75
2023/08/23 02:08:52;;;;;;;;;;;20.30;99.90;;;;;;5126289;28;19955;-77
2023/08/23 02:11:19;;;;;;;;;;;20.30;99.90;;;;;;5126246;28;19919;-77
2023/08/23 02:13:45;;;;;;;;;;;20.30;99.90;;;;;;5125522;28;19978;-77
2023/08/23 02:16:13;;;;;;;;;;;20.20;99.90;;;;;;5123291;28;19927;-77
2023/08/23 02:18:40;;;;;;;;;;;20.20;99.90;;;;;;5125836;28;19920;-77
2023/08/23 02:21:07;;;;;;;;;;;20.10;99.90;;;;;;5126228;28;19955;-76
2023/08/23 02:23:33;;;;;;;;;;;20.10;99.90;;;;;;5125413;28;20157;-77
2023/08/23 02:26:00;;;;;;;;;;;20.00;99.90;;;;;;5125783;28;19920;-77
2023/08/23 02:28:26;;;;;;;;;;;19.90;99.90;;;;;;5125687;28;19955;-76
2023/08/23 02:31:01;;;;;;;;;;;19.90;99.90;;;;;;5123620;28;19926;-77
2023/08/23 02:33:29;;;;;;;;;;;19.90;99.90;;;;;;5124956;28;19971;-77
2023/08/23 02:35:56;;;;;;;;;;;19.90;99.90;;;;;;5125401;28;19958;-77
2023/08/23 02:38:24;;;;;;;;;;;19.90;99.90;;;;;;5124064;28;19979;-76
2023/08/23 02:40:51;;;;;;;;;;;19.80;99.90;;;;;;5125693;28;19982;-77
2023/08/23 02:43:18;;;;;;;;;;;19.70;99.90;;;;;;5125122;28;19919;-77
2023/08/23 02:45:44;;;;;;;;;;;19.80;99.90;;;;;;5125089;28;20207;-76
2023/08/23 02:48:11;;;;;;;;;;;19.80;99.90;;;;;;5125673;28;19983;-76
2023/08/23 02:50:40;;;;;;;;;;;19.80;99.90;;;;;;5122752;28;19962;-76
2023/08/23 02:53:07;;;;;;;;;;;19.80;99.90;;;;;;5124622;28;20233;-76
2023/08/23 02:55:35;;;;;;;;;;;19.70;99.90;;;;;;5125474;28;19984;-77
2023/08/23 02:58:02;;;;;;;;;;;19.70;99.90;;;;;;5125026;28;19932;-77
2023/08/23 03:00:28;;;;;;;;;;;19.70;99.90;;;;;;5125090;28;19984;-76
2023/08/23 03:02:55;;;;;;;;;;;19.60;99.90;;;;;;5124627;28;19990;-76
2023/08/23 03:05:21;;;;;;;;;;;19.60;99.90;;;;;;5125255;28;19926;-77
2023/08/23 03:07:49;;;;;;;;;;;19.60;99.90;;;;;;5124951;28;20259;-77
2023/08/23 03:10:16;;;;;;;;;;;19.50;99.90;;;;;;5124864;28;19959;-77
2023/08/23 03:12:43;;;;;;;;;;;19.50;99.90;;;;;;5124594;28;19920;-76
2023/08/23 03:15:10;;;;;;;;;;;19.50;99.90;;;;;;5122219;28;19987;-76
2023/08/23 03:17:36;;;;;;;;;;;19.50;99.90;;;;;;5125105;28;19982;-76
2023/08/23 03:20:03;;;;;;;;;;;19.50;99.90;;;;;;5124843;28;20259;-76
2023/08/23 03:22:30;;;;;;;;;;;19.50;99.90;;;;;;5123844;28;19973;-77
2023/08/23 03:25:16;;;;;;;;;;;19.40;99.90;;;;;;5121462;28;19951;-76
2023/08/23 03:27:43;;;;;;;;;;;19.50;99.90;;;;;;5117257;28;19990;-77
2023/08/23 03:30:12;;;;;;;;;;;19.40;99.90;;;;;;5122259;28;19920;-77
2023/08/23 03:32:38;;;;;;;;;;;19.40;99.90;;;;;;5124204;28;19982;-77
2023/08/23 03:35:05;;;;;;;;;;;19.40;99.90;;;;;;5124725;28;19988;-76
2023/08/23 03:37:32;;;;;;;;;;;19.40;99.90;;;;;;5124636;28;19919;-77
2023/08/23 03:39:59;;;;;;;;;;;19.40;99.90;;;;;;5124602;28;19995;-76
2023/08/23 03:42:27;;;;;;;;;;;19.30;99.90;;;;;;5103641;28;19955;-77
2023/08/23 03:44:54;;;;;;;;;;;19.30;99.90;;;;;;5104098;28;19986;-76
2023/08/23 03:47:21;;;;;;;;;;;19.20;99.90;;;;;;5101592;28;19983;-76
2023/08/23 03:49:48;;;;;;;;;;;19.20;99.90;;;;;;5104321;28;19988;-76
2023/08/23 03:52:15;;;;;;;;;;;19.20;99.90;;;;;;5103521;28;19920;-76
2023/08/23 03:57:50;;;;;;;;;;;19.20;99.90;;;;;;5117043;28;19919;-75
2023/08/23 04:00:17;;;;;;;;;;;19.20;99.90;;;;;;5124369;28;19982;-75
2023/08/23 04:02:44;;;;;;;;;;;19.20;99.90;;;;;;5123612;28;19996;-75
2023/08/23 04:05:11;;;;;;;;;;;19.20;99.90;;;;;;5124223;28;20088;-76
2023/08/23 04:07:38;;;;;;;;;;;19.20;99.90;;;;;;5124122;28;19958;-75
2023/08/23 04:10:05;;;;;;;;;;;19.10;99.90;;;;;;5123988;28;19919;-76
2023/08/23 04:12:35;;;;;;;;;;;19.10;99.90;;;;;;5122058;28;19924;-76
2023/08/23 04:15:03;;;;;;;;;;;19.10;99.90;;;;;;5124102;28;20298;-75
2023/08/23 04:17:30;;;;;;;;;;;19.10;99.90;;;;;;5124346;28;20396;-76
2023/08/23 04:19:57;;;;;;;;;;;19.00;99.90;;;;;;5124164;28;19999;-77
2023/08/23 04:22:26;;;;;;;;;;;19.00;99.90;;;;;;5122743;28;19920;-76
2023/08/23 04:24:52;;;;;;;;;;;19.00;99.90;;;;;;5122965;28;20114;-76
2023/08/23 04:27:34;;;;;;;;;;;19.00;99.90;;;;;;5121542;28;19920;-75
2023/08/23 04:30:00;;;;;;;;;;;19.00;99.90;;;;;;5124322;28;20015;-75
2023/08/23 04:32:28;;;;;;;;;;;19.00;99.90;;;;;;5123063;28;19979;-76
2023/08/23 04:34:55;;;;;;;;;;;19.00;99.90;;;;;;5125264;28;19951;-77
2023/08/23 04:37:25;;;;;;;;;;;19.00;99.90;;;;;;5124819;28;19920;-77
2023/08/23 04:39:52;;;;;;;;;;;18.90;99.90;;;;;;5128245;28;19919;-76
2023/08/23 04:42:25;;;;;;;;;;;18.90;99.90;;;;;;5127382;27;19993;-76
2023/08/23 04:44:51;;;;;;;;;;;18.90;99.90;;;;;;5126631;28;20164;-75
2023/08/23 04:47:18;;;;;;;;;;;18.90;99.90;;;;;;5128224;28;19947;-77
2023/08/23 04:49:46;;;;;;;;;;;18.80;99.90;;;;;;5127810;28;20348;-74
2023/08/23 04:52:13;;;;;;;;;;;18.80;99.90;;;;;;5127330;28;19926;-74
2023/08/23 04:54:39;;;;;;;;;;;18.90;99.90;;;;;;5127869;28;19942;-74
2023/08/23 04:57:06;;;;;;;;;;;18.80;99.90;;;;;;5126131;27;19955;-73
2023/08/23 04:59:32;;;;;;;;;;;18.90;99.90;;;;;;5127965;28;19947;-74
2023/08/23 05:01:59;;;;;;;;;;;18.80;99.90;;;;;;5126768;28;19934;-74
2023/08/23 05:04:29;;;;;;;;;;;18.80;99.90;;;;;;5125005;28;19982;-74
2023/08/23 05:06:57;;;;;;;;;;;18.80;99.90;;;;;;5127477;28;19965;-75
2023/08/23 05:09:23;;;;;;;;;;;18.90;99.90;;;;;;5127380;28;19927;-75
2023/08/23 05:11:50;;;;;;;;;;;18.90;99.90;;;;;;5127120;28;19919;-72
2023/08/23 05:14:17;;;;;;;;;;;18.90;99.90;;;;;;5127324;28;19965;-75
2023/08/23 05:16:46;;;;;;;;;;;18.90;99.90;;;;;;5124758;28;19920;-74
2023/08/23 05:19:15;;;;;;;;;;;18.90;99.90;;;;;;5127626;28;19990;-74
2023/08/23 05:21:42;;;;;;;;;;;18.80;99.90;;;;;;5126921;28;19927;-75
2023/08/23 05:24:10;;;;;;;;;;;18.90;99.90;;;;;;5126765;28;19990;-76
2023/08/23 05:26:42;;;;;;;;;;;18.90;99.90;;;;;;5125080;27;19990;-76
2023/08/23 05:29:09;;;;;;;;;;;18.90;99.90;;;;;;5127340;28;19955;-76
2023/08/23 06:38:51;;;;;;;;;;;20.20;99.90;;;;;;5041095;28;19916;-69
2023/08/23 06:41:18;;;;;;;;;;;20.30;99.90;;;;;;5043184;28;20236;-69
2023/08/23 06:51:50;;;;;;;;;;;20.40;99.90;;;;;;5043367;28;19921;-70
2023/08/23 06:54:18;;;;;;;;;;;20.50;99.90;;;;;;5043588;28;19921;-69
2023/08/23 06:56:47;;;;;;;;;;;20.60;99.90;;;;;;5043973;28;19943;-68
2023/08/23 06:59:13;;;;;;;;;;;20.70;99.90;;;;;;5040599;28;20266;-69
2023/08/23 07:01:40;;;;;;;;;;;20.70;99.90;;;;;;5018569;28;19932;-68
2023/08/23 07:04:09;;;;;;;;;;;20.70;99.90;;;;;;5023448;28;19921;-70
2023/08/23 07:06:35;;;;;;;;;;;20.80;99.90;;;;;;5024427;28;19961;-69
2023/08/23 07:09:02;;;;;;;;;;;20.80;99.90;;;;;;5025197;28;19928;-68
2023/08/23 07:11:30;;;;;;;;;;;20.90;99.90;;;;;;5038819;28;20011;-68
2023/08/23 07:13:57;;;;;;;;;;;21.00;99.90;;;;;;5034529;28;19921;-68
2023/08/23 07:16:24;;;;;;;;;;;21.10;99.90;;;;;;5024155;28;19922;-68
2023/08/23 07:18:50;;;;;;;;;;;21.20;99.90;;;;;;5023615;28;19975;-68
2023/08/23 07:21:17;;;;;;;;;;;21.30;99.90;;;;;;5023390;28;19933;-67
2023/08/23 07:23:44;;;;;;;;;;;21.40;99.90;;;;;;5024108;28;19964;-69
2023/08/23 07:26:10;;;;;;;;;;;21.50;99.90;;;;;;5023188;28;19921;-69
2023/08/23 07:28:38;;;;;;;;;;;21.50;99.90;;;;;;5017039;28;19980;-69
2023/08/23 07:31:05;;;;;;;;;;;21.60;99.90;;;;;;5018772;28;19993;-68
2023/08/23 07:33:32;;;;;;;;;;;21.70;99.90;;;;;;5009490;28;20165;-69
2023/08/23 07:35:59;;;;;;;;;;;21.70;99.90;;;;;;5022847;28;19984;-69
2023/08/23 07:38:26;;;;;;;;;;;21.90;99.90;;;;;;5023150;28;19953;-68
2023/08/23 07:40:56;;;;;;;;;;;22.00;99.90;;;;;;5024021;28;19953;-69
2023/08/23 07:43:23;;;;;;;;;;;22.00;99.90;;;;;;5023706;28;19957;-69
2023/08/23 07:45:54;;;;;;;;;;;22.10;99.90;;;;;;5007728;28;19937;-69
2023/08/23 07:48:21;;;;;;;;;;;22.10;99.90;;;;;;5003784;28;20205;-70
2023/08/23 07:50:48;;;;;;;;;;;22.00;99.90;;;;;;5020286;28;20184;-70
2023/08/23 07:53:15;;;;;;;;;;;22.10;99.90;;;;;;5023387;28;19925;-68
2023/08/23 07:55:42;;;;;;;;;;;22.30;99.90;;;;;;5023192;28;19922;-68
2023/08/23 07:58:08;;;;;;;;;;;22.30;99.90;;;;;;5023576;28;20153;-69
2023/08/23 08:00:35;;;;;;;;;;;22.40;99.90;;;;;;5023622;28;19941;-68
2023/08/23 08:03:12;;;;;;;;;;;22.40;99.90;;;;;;5019102;28;19933;-69
2023/08/23 08:05:39;;;;;;;;;;;22.40;99.90;;;;;;5022816;28;19922;-70
2023/08/23 08:08:06;;;;;;;;;;;22.50;99.90;;;;;;5022982;28;20224;-69
2023/08/23 08:10:33;;;;;;;;;;;22.50;99.90;;;;;;5023171;28;19953;-70
2023/08/23 08:13:00;;;;;;;;;;;22.50;99.90;;;;;;5023081;28;20256;-70
2023/08/23 08:15:27;;;;;;;;;;;22.60;99.90;;;;;;5023306;28;19985;-69
2023/08/23 08:17:54;;;;;;;;;;;22.80;99.90;;;;;;5023230;28;19993;-69
2023/08/23 08:20:24;;;;;;;;;;;22.90;99.90;;;;;;5023473;28;19957;-70
2023/08/23 08:22:51;;;;;;;;;;;22.90;99.90;;;;;;5023450;28;19928;-69
2023/08/23 08:25:18;;;;;;;;;;;23.00;99.90;;;;;;5023432;28;20015;-69
2023/08/23 08:27:44;;;;;;;;;;;23.00;99.90;;;;;;5023051;28;19985;-69
2023/08/23 08:30:11;;;;;;;;;;;23.00;99.90;;;;;;5023446;28;19921;-70
2023/08/23 08:32:38;;;;;;;;;;;23.10;99.90;;;;;;5023405;28;19956;-71
2023/08/23 08:35:05;;;;;;;;;;;23.20;99.90;;;;;;5022985;28;19988;-69
2023/08/23 08:37:33;;;;;;;;;;;23.20;99.90;;;;;;5023009;28;20117;-70
2023/08/23 08:39:59;;;;;;;;;;;23.30;99.90;;;;;;5022813;28;19981;-69
2023/08/23 08:42:26;;;;;;;;;;;23.30;99.90;;;;;;5023904;28;20057;-70
2023/08/23 08:44:53;;;;;;;;;;;23.50;99.90;;;;;;5023785;28;19922;-69
2023/08/23 08:47:20;;;;;;;;;;;23.60;99.90;;;;;;5014176;28;20259;-68
2023/08/23 08:49:46;;;;;;;;;;;23.70;99.90;;;;;;5023083;28;19981;-67
2023/08/23 08:52:13;;;;;;;;;;;23.70;99.90;;;;;;5022648;28;20116;-70
2023/08/23 08:54:43;;;;;;;;;;;23.90;99.90;;;;;;5005252;28;19945;-69
2023/08/23 08:57:10;;;;;;;;;;;23.90;99.90;;;;;;5022416;28;19936;-70
2023/08/23 08:59:37;;;;;;;;;;;23.90;99.90;;;;;;5011575;28;20181;-69
2023/08/23 09:02:05;;;;;;;;;;;24.00;99.90;;;;;;5006319;28;19980;-69
2023/08/23 09:04:32;;;;;;;;;;;24.00;99.90;;;;;;5017171;28;19984;-70
2023/08/23 09:06:58;;;;;;;;;;;24.10;99.90;;;;;;5014641;28;19972;-69
2023/08/23 09:09:25;;;;;;;;;;;24.20;99.90;;;;;;5022370;28;20320;-70
2023/08/23 09:11:53;;;;;;;;;;;24.20;99.90;;;;;;5022950;28;19927;-69
2023/08/23 09:14:20;;;;;;;;;;;24.30;99.90;;;;;;5022955;28;19985;-70
2023/08/23 09:16:47;;;;;;;;;;;24.40;99.90;;;;;;5022924;28;19984;-72
2023/08/23 09:19:14;;;;;;;;;;;24.40;99.90;;;;;;5022321;28;19921;-70
2023/08/23 09:21:44;;;;;;;;;;;24.40;99.90;;;;;;5023990;28;19989;-70
2023/08/23 09:24:11;;;;;;;;;;;24.50;99.90;;;;;;5026490;28;19921;-70
2023/08/23 09:26:37;;;;;;;;;;;24.60;99.90;;;;;;5025861;28;19929;-70
2023/08/23 09:29:05;;;;;;;;;;;24.70;99.90;;;;;;5019678;28;19992;-70
2023/08/23 09:31:32;;;;;;;;;;;24.70;99.90;;;;;;5025609;28;19993;-69
2023/08/23 09:34:00;;;;;;;;;;;24.80;99.90;;;;;;5024598;28;19988;-70
2023/08/23 09:36:27;;;;;;;;;;;24.90;99.90;;;;;;5008095;28;19922;-69
2023/08/23 09:38:54;;;;;;;;;;;24.90;99.90;;;;;;5013539;28;19922;-70
2023/08/23 09:41:21;;;;;;;;;;;25.00;99.90;;;;;;5014357;28;19967;-70
2023/08/23 09:43:52;;;;;;;;;;;25.00;99.90;;;;;;5020244;28;19985;-69
2023/08/23 09:46:24;;;;;;;;;;;25.20;99.90;;;;;;5024738;28;19957;-70
2023/08/23 09:48:52;;;;;;;;;;;25.30;99.90;;;;;;5024497;28;19960;-70
2023/08/23 09:51:19;;;;;;;;;;;25.30;99.90;;;;;;5025031;28;20256;-69
2023/08/23 09:53:49;;;;;;;;;;;25.40;99.90;;;;;;5006308;28;19953;-70
2023/08/23 09:56:16;;;;;;;;;;;25.50;99.90;;;;;;5012793;28;19953;-70
2023/08/23 09:58:44;;;;;;;;;;;25.50;99.90;;;;;;5024580;28;19984;-69
2023/08/23 10:01:11;;;;;;;;;;;25.60;99.90;;;;;;5022345;28;20052;-70
2023/08/23 10:03:40;;;;;;;;;;;25.70;99.90;;;;;;5025389;28;19929;-70
2023/08/23 10:06:07;;;;;;;;;;;25.70;99.90;;;;;;5025455;28;19957;-70
2023/08/23 10:08:35;;;;;;;;;;;25.80;99.90;;;;;;5012557;28;19988;-70
2023/08/23 10:11:02;;;;;;;;;;;26.00;99.90;;;;;;5025987;28;19944;-69
2023/08/23 10:13:29;;;;;;;;;;;26.00;99.90;;;;;;5025587;28;19988;-70
2023/08/23 10:15:56;;;;;;;;;;;26.10;99.90;;;;;;5018205;28;19953;-70
2023/08/23 10:18:23;;;;;;;;;;;26.10;99.90;;;;;;5009712;28;19925;-69
2023/08/23 10:20:52;;;;;;;;;;;26.20;99.90;;;;;;5025323;28;19984;-70
2023/08/23 10:23:19;;;;;;;;;;;26.30;99.90;;;;;;5025590;28;20181;-70
2023/08/23 10:25:46;;;;;;;;;;;26.40;99.90;;;;;;5025426;28;19921;-69
2023/08/23 10:28:13;;;;;;;;;;;26.50;99.90;;;;;;5025122;28;19992;-70
2023/08/23 10:30:40;;;;;;;;;;;26.60;99.90;;;;;;5025573;28;19984;-69
2023/08/23 10:33:10;;;;;;;;;;;26.70;99.90;;;;;;5025259;28;19992;-69
2023/08/23 10:35:38;;;;;;;;;;;26.80;99.90;;;;;;5024977;28;19980;-70
2023/08/23 10:38:06;;;;;;;;;;;26.90;99.90;;;;;;5025305;28;19953;-70
2023/08/23 10:40:33;;;;;;;;;;;27.00;99.90;;;;;;5025595;28;19957;-69
2023/08/23 10:43:03;;;;;;;;;;;27.10;99.90;;;;;;5025307;28;19993;-69
2023/08/23 10:45:48;;;;;;;;;;;27.20;99.90;;;;;;5005564;28;19921;-70
2023/08/23 10:48:15;;;;;;;;;;;27.20;99.90;;;;;;5024337;28;19971;-70
2023/08/23 10:50:42;;;;;;;;;;;27.20;99.90;;;;;;5024922;28;19956;-69
2023/08/23 10:53:10;;;;;;;;;;;27.20;99.90;;;;;;5008145;28;19997;-69
2023/08/23 10:55:37;;;;;;;;;;;27.30;99.90;;;;;;5010769;28;19993;-70
2023/08/23 10:58:04;;;;;;;;;;;27.30;99.90;;;;;;5024713;28;20022;-69
2023/08/23 11:00:31;;;;;;;;;;;27.40;99.90;;;;;;5025378;28;19964;-70
2023/08/23 11:02:57;;;;;;;;;;;27.50;99.90;;;;;;5024763;28;20200;-70
2023/08/23 11:05:24;;;;;;;;;;;27.60;99.90;;;;;;5024953;28;19957;-70
2023/08/23 11:07:51;;;;;;;;;;;27.70;99.90;;;;;;5024554;28;19922;-69
2023/08/23 11:10:20;;;;;;;;;;;27.80;99.90;;;;;;5024032;28;19932;-70
2023/08/23 11:12:46;;;;;;;;;;;28.00;99.90;;;;;;5025000;28;19929;-70
2023/08/23 11:15:13;;;;;;;;;;;28.00;99.90;;;;;;5024530;28;19953;-70
2023/08/23 11:17:39;;;;;;;;;;;28.10;99.90;;;;;;5024439;28;19965;-69
2023/08/23 11:20:08;;;;;;;;;;;28.20;99.90;;;;;;5025001;28;19927;-70
2023/08/23 11:22:34;;;;;;;;;;;28.30;99.90;;;;;;5024889;28;19922;-70
2023/08/23 11:25:02;;;;;;;;;;;28.40;99.90;;;;;;5024646;28;19921;-70
2023/08/23 11:27:30;;;;;;;;;;;28.50;99.90;;;;;;5024673;28;20344;-70
2023/08/23 11:29:57;;;;;;;;;;;28.60;99.90;;;;;;5023489;28;19953;-70
2023/08/23 11:32:24;;;;;;;;;;;28.70;99.90;;;;;;5023501;28;20173;-70
2023/08/23 11:34:51;;;;;;;;;;;28.70;99.90;;;;;;5024109;28;19984;-70
2023/08/23 11:37:17;;;;;;;;;;;28.60;99.90;;;;;;5022563;28;19960;-69
2023/08/23 11:39:55;;;;;;;;;;;28.60;99.90;;;;;;5023254;28;19984;-70
2023/08/23 11:42:21;;;;;;;;;;;28.50;99.90;;;;;;5024247;28;20163;-68
2023/08/23 11:44:49;;;;;;;;;;;28.70;99.90;;;;;;5023478;28;19921;-70
2023/08/23 11:47:16;;;;;;;;;;;28.80;99.90;;;;;;5023502;28;19921;-70
2023/08/23 11:49:42;;;;;;;;;;;28.80;99.90;;;;;;5022138;28;19922;-70
2023/08/23 11:52:10;;;;;;;;;;;28.90;99.90;;;;;;5023490;28;19959;-71
2023/08/23 11:54:40;;;;;;;;;;;28.70;99.90;;;;;;5023792;28;19980;-71
2023/08/23 11:57:07;;;;;;;;;;;28.70;99.90;;;;;;5023661;28;19953;-71
2023/08/23 11:59:33;;;;;;;;;;;28.70;99.90;;;;;;5023530;28;19922;-71
2023/08/23 12:02:01;;;;;;;;;;;28.90;99.90;;;;;;5023852;28;19922;-71
2023/08/23 12:04:28;;;;;;;;;;;29.10;99.90;;;;;;5023747;28;19982;-71
2023/08/23 12:06:55;;;;;;;;;;;29.40;99.90;;;;;;5023754;28;19984;-71
2023/08/23 12:09:22;;;;;;;;;;;29.50;99.90;;;;;;5023210;28;19921;-71
2023/08/23 12:11:49;;;;;;;;;;;29.50;99.90;;;;;;5023449;28;19921;-72
2023/08/23 12:14:15;;;;;;;;;;;29.60;99.90;;;;;;5023642;28;19984;-71
2023/08/23 12:16:42;;;;;;;;;;;29.60;99.90;;;;;;5023425;28;19981;-70
2023/08/23 12:19:10;;;;;;;;;;;29.70;99.90;;;;;;5023079;28;19984;-71
2023/08/23 12:21:37;;;;;;;;;;;29.70;99.90;;;;;;5023657;28;19952;-71
2023/08/23 12:24:03;;;;;;;;;;;29.80;99.90;;;;;;5023528;28;19980;-72
2023/08/23 12:26:30;;;;;;;;;;;30.00;99.90;;;;;;5023263;28;19968;-71
2023/08/23 12:28:57;;;;;;;;;;;30.00;99.90;;;;;;5023071;28;19922;-71
2023/08/23 12:31:24;;;;;;;;;;;29.70;99.90;;;;;;5023320;28;19922;-71
2023/08/23 12:33:50;;;;;;;;;;;29.50;99.90;;;;;;5023509;28;20159;-71
2023/08/23 12:36:20;;;;;;;;;;;29.50;99.90;;;;;;5023504;28;19957;-71
2023/08/23 12:38:47;;;;;;;;;;;29.60;99.90;;;;;;5023036;28;20260;-71
2023/08/23 12:41:13;;;;;;;;;;;29.70;99.90;;;;;;5023249;28;19953;-71
2023/08/23 12:43:40;;;;;;;;;;;29.70;99.90;;;;;;5023816;28;19997;-71
2023/08/23 12:46:07;;;;;;;;;;;29.90;99.90;;;;;;5023674;28;19981;-71
2023/08/23 12:48:34;;;;;;;;;;;30.20;99.90;;;;;;5022537;28;19968;-72
2023/08/23 12:51:00;;;;;;;;;;;30.30;99.90;;;;;;5021943;28;19985;-69
2023/08/23 12:53:28;;;;;;;;;;;30.50;99.90;;;;;;5022482;28;19961;-69
2023/08/23 12:55:55;;;;;;;;;;;30.60;99.90;;;;;;5022912;28;19993;-70
2023/08/23 12:58:22;;;;;;;;;;;30.80;99.90;;;;;;5025693;28;19957;-70
2023/08/23 13:00:48;;;;;;;;;;;30.90;99.90;;;;;;5027015;28;19964;-71
2023/08/23 13:03:15;;;;;;;;;;;31.10;99.90;;;;;;5026623;28;19990;-71
2023/08/23 13:05:42;;;;;;;;;;;31.30;99.90;;;;;;5026797;28;20148;-71
2023/08/23 13:08:08;;;;;;;;;;;31.40;99.90;;;;;;5026504;28;19921;-70
2023/08/23 13:10:38;;;;;;;;;;;31.60;99.90;;;;;;5026607;28;20264;-70
2023/08/23 13:13:04;;;;;;;;;;;31.80;99.90;;;;;;5026798;28;19957;-70
2023/08/23 13:15:31;;;;;;;;;;;31.90;99.90;;;;;;5026680;28;19993;-71
2023/08/23 13:17:58;;;;;;;;;;;32.00;99.90;;;;;;5026062;28;19928;-69
2023/08/23 13:20:24;;;;;;;;;;;32.10;99.90;;;;;;5026616;28;19984;-70
2023/08/23 13:22:51;;;;;;;;;;;32.00;99.90;;;;;;5026338;28;19957;-70
2023/08/23 13:25:18;;;;;;;;;;;32.00;99.90;;;;;;5026561;28;19921;-71
2023/08/23 13:27:46;;;;;;;;;;;32.10;99.90;;;;;;5026100;28;19921;-70
2023/08/23 13:30:12;;;;;;;;;;;32.20;99.90;;;;;;5026155;28;20195;-70
2023/08/23 13:32:39;;;;;;;;;;;32.10;99.90;;;;;;5026305;28;19953;-71
2023/08/23 13:35:06;;;;;;;;;;;31.80;99.90;;;;;;5026204;28;19921;-70
2023/08/23 13:37:33;;;;;;;;;;;31.60;99.90;;;;;;5026011;28;19981;-69
2023/08/23 13:39:59;;;;;;;;;;;31.60;99.90;;;;;;5025983;28;20173;-70
2023/08/23 13:42:26;;;;;;;;;;;31.70;99.90;;;;;;5026187;28;19985;-70
2023/08/23 13:44:54;;;;;;;;;;;31.60;99.90;;;;;;5025948;28;19921;-70
2023/08/23 13:47:21;;;;;;;;;;;31.50;99.90;;;;;;5025637;28;19988;-70
2023/08/23 13:49:47;;;;;;;;;;;31.70;99.90;;;;;;5026039;28;19984;-70
2023/08/23 13:52:15;;;;;;;;;;;31.90;99.90;;;;;;5025679;28;20277;-70
2023/08/23 13:54:41;;;;;;;;;;;32.10;99.90;;;;;;5025885;28;19957;-70
2023/08/23 13:57:08;;;;;;;;;;;32.20;99.90;;;;;;5025964;28;19956;-70
2023/08/23 13:59:34;;;;;;;;;;;32.30;99.90;;;;;;5025694;28;19988;-70
2023/08/23 14:02:04;;;;;;;;;;;32.10;99.90;;;;;;5025606;28;19942;-70
2023/08/23 14:04:32;;;;;;;;;;;31.80;99.90;;;;;;5025502;28;19921;-70
2023/08/23 14:06:59;;;;;;;;;;;32.00;99.90;;;;;;5024984;28;19922;-70
2023/08/23 14:09:26;;;;;;;;;;;31.90;99.90;;;;;;5025033;28;19936;-70
2023/08/23 14:11:53;;;;;;;;;;;31.40;99.90;;;;;;5025649;28;19955;-70
2023/08/23 14:14:19;;;;;;;;;;;31.40;99.90;;;;;;5025582;28;19952;-69
2023/08/23 14:16:46;;;;;;;;;;;31.50;99.90;;;;;;5024089;28;19927;-69
2023/08/23 14:19:14;;;;;;;;;;;31.50;99.90;;;;;;5024826;28;20112;-69
2023/08/23 14:21:41;;;;;;;;;;;31.70;99.90;;;;;;5025252;28;19988;-69
2023/08/23 14:24:07;;;;;;;;;;;31.90;99.90;;;;;;5025353;28;19949;-69
2023/08/23 14:26:34;;;;;;;;;;;32.10;99.90;;;;;;5025630;28;20153;-69
2023/08/23 14:29:01;;;;;;;;;;;32.30;99.90;;;;;;5024479;28;20179;-69
2023/08/23 14:31:27;;;;;;;;;;;32.30;99.90;;;;;;5025296;28;19953;-71
2023/08/23 14:33:54;;;;;;;;;;;31.90;99.90;;;;;;5025238;28;20116;-69
2023/08/23 14:36:22;;;;;;;;;;;31.90;99.90;;;;;;5025111;28;19988;-69
2023/08/23 14:38:49;;;;;;;;;;;31.80;99.90;;;;;;5024408;28;20148;-68
2023/08/23 14:41:16;;;;;;;;;;;31.70;99.90;;;;;;5024820;28;19921;-69
2023/08/23 14:43:42;;;;;;;;;;;31.80;99.90;;;;;;5024962;28;19922;-68
2023/08/23 14:46:09;;;;;;;;;;;31.80;99.90;;;;;;5023456;28;20209;-68
2023/08/23 14:48:36;;;;;;;;;;;31.90;99.90;;;;;;5024179;28;19921;-69
2023/08/23 14:51:02;;;;;;;;;;;31.70;99.90;;;;;;5024381;28;19927;-67
2023/08/23 14:53:30;;;;;;;;;;;31.50;99.90;;;;;;5024248;28;19929;-68
2023/08/23 14:55:57;;;;;;;;;;;31.60;99.90;;;;;;5024231;28;19949;-68
2023/08/23 14:58:23;;;;;;;;;;;31.60;99.90;;;;;;5024410;28;19921;-68
2023/08/23 15:00:51;;;;;;;;;;;31.50;99.90;;;;;;5023868;28;19960;-69
2023/08/23 15:03:18;;;;;;;;;;;31.60;99.90;;;;;;5024532;28;19988;-68
2023/08/23 15:05:44;;;;;;;;;;;31.70;99.90;;;;;;5024329;28;19922;-68
2023/08/23 15:08:11;;;;;;;;;;;31.70;99.90;;;;;;5023773;28;19928;-68
2023/08/23 15:10:39;;;;;;;;;;;31.90;99.90;;;;;;5024037;28;19964;-68
2023/08/23 15:13:05;;;;;;;;;;;32.00;99.90;;;;;;5024418;28;19953;-68
2023/08/23 15:15:32;;;;;;;;;;;32.10;99.90;;;;;;5020123;28;19921;-69
2023/08/23 15:17:59;;;;;;;;;;;32.20;99.90;;;;;;5004280;28;19936;-68
2023/08/23 15:20:25;;;;;;;;;;;32.10;99.90;;;;;;5007135;28;19928;-68
2023/08/23 15:22:52;;;;;;;;;;;32.00;99.90;;;;;;5024176;28;19980;-69
2023/08/23 15:25:19;;;;;;;;;;;32.00;99.90;;;;;;5024245;28;19976;-69
2023/08/23 15:27:48;;;;;;;;;;;32.00;99.90;;;;;;5020223;28;19930;-68
2023/08/23 15:30:15;;;;;;;;;;;32.10;99.90;;;;;;5004433;28;19922;-68
2023/08/23 15:32:41;;;;;;;;;;;32.20;99.90;;;;;;5004188;28;19957;-69
2023/08/23 15:35:09;;;;;;;;;;;32.20;99.90;;;;;;5004564;28;19965;-68